createdAt,value
2022-10-05T00:00:47.143Z,4.43
2022-10-05T00:03:16.015Z,4.23
2022-10-05T00:05:47.195Z,3.80
2022-10-05T00:08:18.636Z,4.40
2022-10-05T00:10:47.984Z,6.97
2022-10-05T00:13:21.103Z,4.90
2022-10-05T00:15:50.767Z,7.67
2022-10-05T00:18:21.645Z,4.63
2022-10-05T00:20:51.055Z,4.57
2022-10-05T00:23:22.661Z,5.90
2022-10-05T00:25:51.877Z,5.03
2022-10-05T00:28:27.630Z,5.13
2022-10-05T00:30:57.413Z,6.00
2022-10-05T00:33:26.477Z,4.73
2022-10-05T00:35:56.029Z,6.13
2022-10-05T00:38:25.105Z,6.30
2022-10-05T00:41:05.956Z,5.13
2022-10-05T00:44:01.867Z,4.73
2022-10-05T00:46:39.975Z,5.30
2022-10-05T00:49:17.891Z,5.17
2022-10-05T00:51:56.858Z,6.60
2022-10-05T00:54:32.205Z,3.60
2022-10-05T00:57:17.256Z,7.73
2022-10-05T00:59:59.368Z,5.33
2022-10-05T01:02:37.091Z,6.13
2022-10-05T01:05:12.814Z,6.17
2022-10-05T01:07:48.883Z,2.73
2022-10-05T01:10:25.605Z,3.37
2022-10-05T01:13:03.872Z,2.97
2022-10-05T01:15:39.801Z,5.70
2022-10-05T01:18:15.236Z,3.13
2022-10-05T01:20:52.401Z,4.23
2022-10-05T01:23:51.777Z,2.87
2022-10-05T01:26:43.898Z,3.30
2022-10-05T01:29:21.518Z,2.63
2022-10-05T01:31:55.611Z,5.40
2022-10-05T01:34:31.575Z,3.27
2022-10-05T01:37:05.185Z,5.33
2022-10-05T01:39:44.226Z,6.60
2022-10-05T01:42:19.009Z,5.67
2022-10-05T01:44:56.073Z,3.43
2022-10-05T01:47:31.236Z,4.57
2022-10-05T01:50:04.566Z,3.73
2022-10-05T01:52:44.895Z,4.00
2022-10-05T01:55:23.715Z,2.60
2022-10-05T01:58:06.082Z,2.33
2022-10-05T02:00:43.307Z,3.70
2022-10-05T02:03:19.154Z,3.53
2022-10-05T02:05:53.539Z,3.53
2022-10-05T02:08:26.699Z,3.97
2022-10-05T02:11:02.191Z,3.00
2022-10-05T02:13:36.541Z,5.20
2022-10-05T02:16:12.072Z,4.60
2022-10-05T02:18:48.129Z,4.27
2022-10-05T02:21:17.777Z,4.57
2022-10-05T02:23:49.463Z,2.30
2022-10-05T02:26:20.022Z,3.00
2022-10-05T02:28:53.687Z,3.13
2022-10-05T02:31:28.602Z,4.90
2022-10-05T02:34:25.920Z,4.83
2022-10-05T02:37:12.206Z,4.70
2022-10-05T02:39:53.200Z,4.43
2022-10-05T02:42:28.846Z,4.83
2022-10-05T02:45:04.535Z,5.77
2022-10-05T02:47:42.885Z,7.17
2022-10-05T02:50:24.376Z,3.30
2022-10-05T02:53:03.359Z,5.13
2022-10-05T02:55:41.575Z,5.60
2022-10-05T02:58:17.168Z,4.33
2022-10-05T03:00:50.562Z,3.90
2022-10-05T03:03:27.380Z,6.57
2022-10-05T03:06:02.034Z,5.23
2022-10-05T03:08:38.013Z,5.07
2022-10-05T03:11:16.043Z,3.80
2022-10-05T03:13:51.914Z,3.07
2022-10-05T03:16:37.052Z,4.83
2022-10-05T03:19:22.156Z,5.07
2022-10-05T03:22:01.022Z,2.97
2022-10-05T03:25:04.493Z,5.07
2022-10-05T03:27:41.004Z,7.27
2022-10-05T03:30:17.483Z,2.47
2022-10-05T03:32:57.741Z,7.47
2022-10-05T03:35:34.022Z,4.13
2022-10-05T03:38:10.488Z,4.70
2022-10-05T03:40:45.944Z,6.00
2022-10-05T03:43:32.541Z,4.23
2022-10-05T03:46:07.665Z,7.70
2022-10-05T03:48:46.038Z,5.57
2022-10-05T03:51:22.492Z,5.60
2022-10-05T03:53:57.095Z,10.07
2022-10-05T03:56:36.083Z,5.70
2022-10-05T03:59:13.181Z,6.93
2022-10-05T04:01:46.857Z,5.20
2022-10-05T04:04:22.216Z,4.37
2022-10-05T04:06:55.163Z,3.33
2022-10-05T04:09:28.689Z,5.07
2022-10-05T04:12:09.385Z,4.93
2022-10-05T04:14:42.481Z,3.10
2022-10-05T04:17:15.250Z,3.73
2022-10-05T04:19:51.988Z,5.07
2022-10-05T04:22:26.184Z,4.57
2022-10-05T04:24:59.529Z,5.63
2022-10-05T04:27:34.440Z,4.30
2022-10-05T04:30:08.158Z,5.87
2022-10-05T04:32:39.914Z,5.80
2022-10-05T04:35:38.488Z,5.33
2022-10-05T04:38:23.403Z,6.13
2022-10-05T04:41:06.671Z,8.23
2022-10-05T04:43:46.885Z,7.03
2022-10-05T04:46:25.411Z,7.53
2022-10-05T04:49:15.085Z,5.93
2022-10-05T04:51:53.163Z,10.40
2022-10-05T04:54:37.007Z,4.80
2022-10-05T04:57:12.675Z,5.27
2022-10-05T05:00:03.019Z,5.50
2022-10-05T05:02:49.060Z,3.40
2022-10-05T05:05:32.683Z,4.77
2022-10-05T05:08:17.774Z,5.03
2022-10-05T05:11:17.393Z,6.87
2022-10-05T05:14:17.357Z,8.30
2022-10-05T05:16:53.358Z,5.73
2022-10-05T05:19:40.832Z,7.43
2022-10-05T05:22:21.482Z,6.67
2022-10-05T05:25:04.543Z,7.37
2022-10-05T05:27:44.087Z,7.40
2022-10-05T05:30:23.890Z,4.30
2022-10-05T05:33:15.373Z,6.80
2022-10-05T05:36:14.324Z,19.73
2022-10-05T05:38:49.493Z,28.70
2022-10-05T05:41:28.030Z,16.97
2022-10-05T05:44:07.127Z,21.80
2022-10-05T05:47:02.407Z,13.43
2022-10-05T05:49:39.142Z,11.27
2022-10-05T05:52:15.500Z,8.67
2022-10-05T05:54:49.566Z,7.13
2022-10-05T05:57:22.587Z,13.27
2022-10-05T06:00:01.286Z,12.57
2022-10-05T06:02:40.297Z,11.43
2022-10-05T06:05:25.096Z,14.43
2022-10-05T06:07:56.029Z,12.23
2022-10-05T06:10:32.351Z,7.30
2022-10-05T06:13:17.329Z,9.33
2022-10-05T06:15:52.571Z,8.40
2022-10-05T06:18:23.413Z,7.60
2022-10-05T06:21:00.769Z,7.37
2022-10-05T06:23:36.706Z,11.00
2022-10-05T06:26:16.269Z,8.90
2022-10-05T06:28:53.047Z,9.53
2022-10-05T06:31:39.078Z,10.77
2022-10-05T06:34:27.332Z,16.53
2022-10-05T06:37:01.344Z,15.80
2022-10-05T06:39:50.385Z,16.40
2022-10-05T06:42:30.801Z,15.03
2022-10-05T06:45:22.524Z,13.60
2022-10-05T06:48:26.103Z,12.00
2022-10-05T06:51:24.582Z,12.40
2022-10-05T06:54:21.038Z,14.73
2022-10-05T06:56:57.389Z,12.30
2022-10-05T06:59:33.259Z,13.37
2022-10-05T07:02:10.725Z,18.17
2022-10-05T07:04:53.075Z,14.37
2022-10-05T07:07:30.744Z,12.43
2022-10-05T07:10:16.348Z,10.53
2022-10-05T07:12:59.730Z,12.20
2022-10-05T07:15:41.463Z,8.07
2022-10-05T07:18:30.316Z,10.37
2022-10-05T07:21:07.330Z,7.77
2022-10-05T07:24:00.243Z,8.83
2022-10-05T07:26:34.709Z,9.33
2022-10-05T07:29:33.630Z,10.27
2022-10-05T07:32:13.858Z,10.40
2022-10-05T07:34:51.174Z,10.10
2022-10-05T07:37:45.299Z,14.43
2022-10-05T07:40:20.402Z,9.80
2022-10-05T07:43:03.829Z,10.57
2022-10-05T07:45:42.254Z,10.53
2022-10-05T07:48:16.677Z,11.70
2022-10-05T07:50:57.774Z,10.20
2022-10-05T07:53:33.644Z,12.13
2022-10-05T07:56:09.968Z,12.67
2022-10-05T07:58:43.984Z,11.20
2022-10-05T08:01:19.122Z,11.03
2022-10-05T08:03:55.306Z,10.33
2022-10-05T08:06:49.527Z,11.30
2022-10-05T08:09:34.269Z,12.53
2022-10-05T08:12:17.760Z,11.73
2022-10-05T08:14:52.768Z,13.13
2022-10-05T08:17:31.917Z,11.50
2022-10-05T08:20:08.359Z,11.50
2022-10-05T08:22:44.962Z,13.17
2022-10-05T08:25:23.014Z,12.68
2022-10-05T08:27:57.577Z,9.90
2022-10-05T08:30:26.289Z,13.93
2022-10-05T08:33:01.622Z,12.80
2022-10-05T08:35:36.583Z,10.75
2022-10-05T08:38:12.457Z,12.30
2022-10-05T08:41:16.090Z,10.88
2022-10-05T08:44:18.608Z,9.27
2022-10-05T08:47:20.638Z,10.95
2022-10-05T08:50:23.178Z,12.02
2022-10-05T08:53:29.851Z,9.27
2022-10-05T08:56:28.980Z,9.43
2022-10-05T08:59:29.522Z,10.07
2022-10-05T09:02:15.280Z,9.57
2022-10-05T09:05:01.542Z,8.25
2022-10-05T09:08:18.649Z,8.18
2022-10-05T09:11:05.073Z,8.10
2022-10-05T09:14:06.284Z,9.73
2022-10-05T09:16:51.232Z,8.25
2022-10-05T09:19:43.900Z,6.18
2022-10-05T09:22:17.636Z,7.82
2022-10-05T09:24:57.098Z,8.10
2022-10-05T09:27:37.445Z,7.57
2022-10-05T09:30:26.890Z,7.32
2022-10-05T09:33:30.690Z,8.35
2022-10-05T09:36:34.063Z,7.05
2022-10-05T09:39:25.887Z,7.05
2022-10-05T09:42:23.390Z,6.65
2022-10-05T09:45:22.480Z,8.73
2022-10-05T09:48:21.903Z,6.55
2022-10-05T09:51:19.643Z,5.18
2022-10-05T09:54:30.027Z,6.18
2022-10-05T09:57:34.086Z,5.18
2022-10-05T10:00:34.356Z,6.43
2022-10-05T10:04:30.495Z,9.55
2022-10-05T10:07:32.424Z,6.85
2022-10-05T10:10:34.161Z,6.20
2022-10-05T10:13:30.940Z,7.30
2022-10-05T10:16:14.197Z,6.60
2022-10-05T10:19:06.861Z,5.15
2022-10-05T10:22:02.932Z,5.50
2022-10-05T10:24:57.535Z,8.95
2022-10-05T10:27:54.171Z,6.20
2022-10-05T10:30:44.535Z,6.65
2022-10-05T10:33:31.085Z,6.53
2022-10-05T10:36:06.979Z,8.13
2022-10-05T10:38:54.753Z,6.38
2022-10-05T10:42:05.790Z,4.22
2022-10-05T10:45:28.627Z,6.20
2022-10-05T10:48:03.411Z,6.60
2022-10-05T10:51:04.319Z,5.38
2022-10-05T10:54:08.642Z,6.18
2022-10-05T10:57:03.108Z,4.20
2022-10-05T11:00:03.911Z,5.43
2022-10-05T11:03:04.837Z,5.38
2022-10-05T11:05:59.903Z,6.45
2022-10-05T11:09:14.411Z,6.63
2022-10-05T11:12:27.527Z,6.72
2022-10-05T11:15:19.456Z,5.68
2022-10-05T11:17:59.889Z,4.47
2022-10-05T11:20:56.066Z,5.05
2022-10-05T11:23:39.902Z,5.10
2022-10-05T11:26:24.580Z,5.05
2022-10-05T11:29:37.187Z,4.72
2022-10-05T11:32:41.953Z,5.65
2022-10-05T11:36:20.169Z,4.95
2022-10-05T11:39:22.268Z,5.55
2022-10-05T11:42:26.260Z,7.25
2022-10-05T11:45:27.804Z,7.45
2022-10-05T11:48:27.793Z,5.53
2022-10-05T11:51:18.761Z,5.28
2022-10-05T11:53:58.387Z,3.78
2022-10-05T11:56:34.228Z,4.28
2022-10-05T11:59:10.797Z,5.50
2022-10-05T12:01:45.676Z,4.13
2022-10-05T12:04:31.601Z,5.53
2022-10-05T12:07:09.720Z,3.08
2022-10-05T12:10:17.555Z,3.63
2022-10-05T12:13:01.225Z,3.83
2022-10-05T12:15:36.900Z,5.55
2022-10-05T12:18:13.603Z,4.43
2022-10-05T12:20:48.609Z,4.28
2022-10-05T12:23:25.901Z,3.63
2022-10-05T12:26:00.869Z,3.70
2022-10-05T12:28:35.623Z,2.70
2022-10-05T12:31:25.613Z,3.55
2022-10-05T12:34:03.264Z,4.47
2022-10-05T12:37:02.954Z,4.47
2022-10-05T12:39:40.097Z,3.08
2022-10-05T12:42:25.957Z,4.32
2022-10-05T12:45:18.897Z,2.80
2022-10-05T12:48:07.642Z,2.78
2022-10-05T12:50:38.670Z,2.95
2022-10-05T12:53:35.798Z,3.42
2022-10-05T12:56:12.169Z,5.13
2022-10-05T12:58:52.768Z,5.00
2022-10-05T13:01:30.558Z,3.30
2022-10-05T13:04:09.931Z,6.80
2022-10-05T13:06:45.657Z,4.57
2022-10-05T13:09:24.144Z,4.95
2022-10-05T13:12:00.478Z,3.65
2022-10-05T13:14:48.860Z,4.82
2022-10-05T13:17:25.751Z,3.05
2022-10-05T13:20:00.164Z,2.60
2022-10-05T13:22:35.941Z,2.97
2022-10-05T13:25:20.815Z,3.80
2022-10-05T13:28:06.219Z,3.90
2022-10-05T13:30:36.727Z,4.00
2022-10-05T13:33:08.439Z,4.40
2022-10-05T13:35:45.910Z,6.25
2022-10-05T13:38:28.522Z,6.72
2022-10-05T13:41:07.799Z,4.43
2022-10-05T13:43:45.843Z,3.85
2022-10-05T13:46:24.622Z,4.88
2022-10-05T13:49:04.508Z,4.25
2022-10-05T13:51:41.864Z,4.88
2022-10-05T13:54:18.606Z,5.07
2022-10-05T13:56:53.910Z,4.03
2022-10-05T13:59:33.332Z,3.80
2022-10-05T14:02:08.032Z,6.25
2022-10-05T14:04:46.747Z,3.95
2022-10-05T14:07:26.229Z,5.20
2022-10-05T14:09:55.064Z,5.20
2022-10-05T14:12:24.941Z,5.18
2022-10-05T14:14:56.848Z,4.22
2022-10-05T14:17:40.939Z,3.97
2022-10-05T14:20:23.735Z,3.58
2022-10-05T14:22:58.153Z,4.72
2022-10-05T14:25:28.241Z,3.88
2022-10-05T14:28:02.097Z,2.95
2022-10-05T14:30:33.507Z,3.00
2022-10-05T14:33:15.470Z,5.35
2022-10-05T14:35:50.109Z,3.92
2022-10-05T14:38:22.478Z,5.10
2022-10-05T14:41:06.185Z,4.53
2022-10-05T14:43:36.270Z,5.70
2022-10-05T14:46:27.211Z,6.40
2022-10-05T14:49:18.107Z,4.97
2022-10-05T14:51:46.817Z,3.55
2022-10-05T14:54:27.459Z,4.85
2022-10-05T14:57:04.950Z,3.05
2022-10-05T14:59:55.271Z,5.15
2022-10-05T15:02:59.198Z,2.45
2022-10-05T15:05:32.624Z,2.90
2022-10-05T15:08:17.338Z,4.65
2022-10-05T15:10:53.286Z,6.43
2022-10-05T15:13:54.750Z,5.45
2022-10-05T15:16:29.118Z,4.50
2022-10-05T15:19:08.261Z,9.07
2022-10-05T15:21:52.017Z,9.73
2022-10-05T15:24:26.547Z,19.20
2022-10-05T15:26:58.295Z,22.60
2022-10-05T15:29:41.936Z,15.00
2022-10-05T15:32:22.005Z,11.65
2022-10-05T15:35:04.033Z,6.97
2022-10-05T15:37:38.408Z,5.68
2022-10-05T15:40:17.228Z,4.60
2022-10-05T15:42:45.908Z,3.85
2022-10-05T15:45:23.380Z,5.18
2022-10-05T15:48:00.157Z,4.68
2022-10-05T15:50:36.194Z,7.18
2022-10-05T15:53:14.524Z,7.70
2022-10-05T15:55:48.379Z,7.85
2022-10-05T15:58:45.693Z,10.23
2022-10-05T16:01:19.723Z,8.10
2022-10-05T16:03:52.052Z,9.82
2022-10-05T16:06:56.497Z,7.43
2022-10-05T16:09:40.126Z,7.18
2022-10-05T16:12:19.289Z,10.18
2022-10-05T16:14:59.789Z,10.73
2022-10-05T16:17:48.006Z,9.35
2022-10-05T16:20:29.828Z,12.30
2022-10-05T16:23:07.176Z,14.23
2022-10-05T16:25:48.088Z,18.13
2022-10-05T16:28:29.121Z,34.05
2022-10-05T16:31:03.608Z,16.23
2022-10-05T16:33:48.743Z,11.55
2022-10-05T16:36:24.986Z,13.48
2022-10-05T16:39:03.382Z,12.93
2022-10-05T16:41:41.407Z,10.50
2022-10-05T16:44:20.811Z,8.65
2022-10-05T16:46:58.002Z,12.05
2022-10-05T16:49:38.559Z,9.45
2022-10-05T16:52:13.521Z,8.98
2022-10-05T16:54:48.224Z,10.07
2022-10-05T16:57:22.796Z,13.50
2022-10-05T17:00:16.904Z,6.82
2022-10-05T17:03:14.422Z,5.50
2022-10-05T17:06:06.190Z,5.07
2022-10-05T17:08:52.583Z,3.90
2022-10-05T17:11:35.176Z,5.55
2022-10-05T17:14:26.115Z,7.47
2022-10-05T17:17:17.705Z,7.25
2022-10-05T17:20:03.257Z,6.10
2022-10-05T17:22:40.051Z,7.93
2022-10-05T17:25:18.928Z,7.97
2022-10-05T17:27:56.092Z,9.45
2022-10-05T17:30:51.442Z,6.75
2022-10-05T17:33:27.953Z,10.15
2022-10-05T17:36:19.359Z,11.45
2022-10-05T17:38:51.904Z,8.35
2022-10-05T17:41:26.679Z,12.90
2022-10-05T17:44:26.497Z,14.38
2022-10-05T17:46:58.830Z,12.30
2022-10-05T17:50:13.817Z,14.85
2022-10-05T17:53:02.676Z,13.43
2022-10-05T17:56:03.736Z,11.95
2022-10-05T17:59:04.534Z,15.77
2022-10-05T18:01:38.070Z,15.20
2022-10-05T18:04:29.137Z,12.13
2022-10-05T18:07:06.947Z,16.10
2022-10-05T18:09:57.630Z,11.98
2022-10-05T18:12:47.705Z,17.48
2022-10-05T18:15:33.509Z,14.98
2022-10-05T18:18:50.375Z,15.77
2022-10-05T18:21:30.497Z,15.52
2022-10-05T18:24:07.218Z,13.50
2022-10-05T18:26:43.998Z,10.50
2022-10-05T18:29:39.518Z,14.35
2022-10-05T18:32:19.533Z,13.40
2022-10-05T18:35:02.171Z,14.05
2022-10-05T18:37:50.501Z,9.95
2022-10-05T18:40:40.082Z,9.90
2022-10-05T18:43:23.236Z,11.10
2022-10-05T18:46:05.515Z,12.25
2022-10-05T18:48:46.816Z,11.93
2022-10-05T18:51:26.102Z,12.32
2022-10-05T18:54:08.756Z,12.45
2022-10-05T18:56:42.421Z,11.85
2022-10-05T18:59:28.367Z,14.98
2022-10-05T19:02:19.819Z,10.65
2022-10-05T19:05:09.179Z,8.20
2022-10-05T19:08:00.018Z,9.30
2022-10-05T19:10:35.520Z,9.65
2022-10-05T19:13:23.277Z,10.45
2022-10-05T19:16:03.118Z,8.65
2022-10-05T19:18:46.509Z,7.82
2022-10-05T19:21:26.207Z,12.10
2022-10-05T19:24:14.030Z,7.25
2022-10-05T19:27:00.011Z,8.57
2022-10-05T19:29:48.288Z,9.32
2022-10-05T19:32:23.904Z,8.63
2022-10-05T19:35:07.029Z,8.65
2022-10-05T19:37:47.586Z,28.98
2022-10-05T19:40:24.328Z,20.63
2022-10-05T19:43:10.079Z,18.67
2022-10-05T19:45:44.656Z,15.93
2022-10-05T19:48:27.822Z,16.75
2022-10-05T19:50:59.117Z,8.13
2022-10-05T19:53:30.539Z,4.93
2022-10-05T19:56:25.549Z,12.75
2022-10-05T19:58:56.514Z,8.02
2022-10-05T20:01:27.341Z,6.38
2022-10-05T20:03:57.948Z,5.90
2022-10-05T20:06:29.486Z,7.97
2022-10-05T20:09:04.497Z,8.85
2022-10-05T20:11:49.574Z,8.55
2022-10-05T20:14:20.781Z,8.90
2022-10-05T20:17:06.931Z,8.30
2022-10-05T20:19:57.436Z,8.45
2022-10-05T20:22:32.740Z,8.77
2022-10-05T20:25:05.689Z,11.35
2022-10-05T20:27:46.507Z,8.93
2022-10-05T20:30:18.332Z,11.45
2022-10-05T20:32:48.993Z,8.85
2022-10-05T20:35:18.623Z,9.57
2022-10-05T20:37:47.236Z,18.00
2022-10-05T20:40:17.644Z,12.50
2022-10-05T20:42:47.865Z,16.45
2022-10-05T20:45:17.260Z,11.68
2022-10-05T20:47:46.563Z,8.60
2022-10-05T20:50:15.846Z,9.20
2022-10-05T20:52:44.655Z,8.60
2022-10-05T20:55:13.456Z,7.38
2022-10-05T20:57:42.549Z,13.40
2022-10-05T21:00:14.373Z,13.98
2022-10-05T21:02:42.919Z,6.35
2022-10-05T21:05:11.633Z,9.90
2022-10-05T21:07:40.946Z,9.93
2022-10-05T21:10:10.241Z,9.45
2022-10-05T21:12:38.888Z,8.27
2022-10-05T21:15:08.103Z,12.00
2022-10-05T21:17:38.834Z,7.53
2022-10-05T21:20:11.523Z,19.92
2022-10-05T21:22:40.468Z,14.13
2022-10-05T21:25:09.876Z,15.93
2022-10-05T21:27:38.509Z,13.73
2022-10-05T21:30:08.525Z,12.73
2022-10-05T21:32:43.959Z,8.85
2022-10-05T21:35:13.182Z,9.47
2022-10-05T21:37:41.813Z,15.47
2022-10-05T21:40:11.336Z,7.73
2022-10-05T21:42:40.072Z,6.80
2022-10-05T21:45:09.971Z,10.02
2022-10-05T21:47:40.021Z,9.25
2022-10-05T21:50:10.298Z,8.70
2022-10-05T21:52:38.990Z,8.37
2022-10-05T21:55:08.525Z,11.27
2022-10-05T21:57:38.267Z,9.70
2022-10-05T22:00:09.985Z,9.20
2022-10-05T22:02:40.070Z,11.93
2022-10-05T22:05:09.416Z,10.23
2022-10-05T22:07:38.466Z,9.90
2022-10-05T22:10:08.238Z,10.67
2022-10-05T22:12:36.992Z,7.70
2022-10-05T22:15:07.121Z,10.13
2022-10-05T22:17:36.176Z,6.93
2022-10-05T22:20:07.065Z,10.47
2022-10-05T22:22:36.025Z,7.17
2022-10-05T22:25:05.810Z,6.73
2022-10-05T22:27:35.710Z,9.00
2022-10-05T22:30:05.754Z,6.57
2022-10-05T22:32:34.328Z,9.50
2022-10-05T22:35:03.766Z,8.50
2022-10-05T22:37:37.888Z,8.30
2022-10-05T22:40:14.773Z,7.50
2022-10-05T22:42:43.422Z,10.87
2022-10-05T22:45:12.258Z,8.67
2022-10-05T22:47:42.273Z,8.60
2022-10-05T22:50:11.142Z,8.30
2022-10-05T22:52:41.443Z,6.47
2022-10-05T22:55:10.815Z,8.53
2022-10-05T22:57:40.196Z,7.33
2022-10-05T23:00:10.927Z,6.40
2022-10-05T23:02:40.346Z,7.13
2022-10-05T23:05:10.429Z,7.83
2022-10-05T23:07:42.493Z,7.00
2022-10-05T23:10:12.589Z,8.57
2022-10-05T23:12:41.213Z,9.23
2022-10-05T23:15:10.908Z,7.13
2022-10-05T23:17:40.468Z,8.37
2022-10-05T23:20:09.755Z,5.90
2022-10-05T23:22:39.969Z,8.43
2022-10-05T23:25:09.500Z,10.70
2022-10-05T23:27:38.891Z,6.20
2022-10-05T23:30:09.918Z,10.13
2022-10-05T23:32:40.014Z,6.50
2022-10-05T23:35:14.731Z,7.97
2022-10-05T23:37:45.904Z,7.23
2022-10-05T23:40:15.269Z,11.87
2022-10-05T23:42:43.977Z,10.30
2022-10-05T23:45:13.325Z,7.10
2022-10-05T23:47:42.161Z,8.10
2022-10-05T23:50:11.246Z,7.47
2022-10-05T23:52:39.811Z,6.60
2022-10-05T23:55:10.757Z,6.77
2022-10-05T23:57:40.308Z,8.30
